createdAt,value
2019-03-06T00:00:36.851Z,3.61
2019-03-06T00:01:36.848Z,3.61
2019-03-06T00:02:36.828Z,3.54
2019-03-06T00:03:36.808Z,3.58
2019-03-06T00:04:36.803Z,3.50
2019-03-06T00:05:36.791Z,3.61
2019-03-06T00:06:36.804Z,3.51
2019-03-06T00:07:36.774Z,3.60
2019-03-06T00:08:36.762Z,3.58
2019-03-06T00:09:36.745Z,3.57
2019-03-06T00:10:36.740Z,3.66
2019-03-06T00:11:36.746Z,3.54
2019-03-06T00:12:36.716Z,3.62
2019-03-06T00:13:36.700Z,3.62
2019-03-06T00:14:36.693Z,3.62
2019-03-06T00:15:36.679Z,3.62
2019-03-06T00:16:36.677Z,3.58
2019-03-06T00:17:36.653Z,3.72
2019-03-06T00:18:36.646Z,3.68
2019-03-06T00:19:36.644Z,3.79
2019-03-06T00:20:36.626Z,3.72
2019-03-06T00:21:36.630Z,3.72
2019-03-06T00:22:36.605Z,3.73
2019-03-06T00:23:36.589Z,3.75
2019-03-06T00:24:36.581Z,3.86
2019-03-06T00:25:36.566Z,3.86
2019-03-06T00:26:36.595Z,3.88
2019-03-06T00:27:36.544Z,3.87
2019-03-06T00:28:36.529Z,3.86
2019-03-06T00:29:36.539Z,3.91
2019-03-06T00:30:36.524Z,3.87
2019-03-06T00:31:36.510Z,3.87
2019-03-06T00:32:36.539Z,3.84
2019-03-06T00:33:36.483Z,3.86
2019-03-06T00:34:36.468Z,3.84
2019-03-06T00:35:36.466Z,3.86
2019-03-06T00:36:36.457Z,3.80
2019-03-06T00:37:36.459Z,3.88
2019-03-06T00:38:36.420Z,3.84
2019-03-06T00:39:36.414Z,3.88
2019-03-06T00:40:36.398Z,3.90
2019-03-06T00:41:36.394Z,3.87
2019-03-06T00:42:36.395Z,3.78
2019-03-06T00:43:36.369Z,3.78
2019-03-06T00:44:36.374Z,3.72
2019-03-06T00:45:36.350Z,3.79
2019-03-06T00:46:36.332Z,3.76
2019-03-06T00:47:36.334Z,3.72
2019-03-06T00:48:36.315Z,3.73
2019-03-06T00:49:36.322Z,3.70
2019-03-06T00:50:36.283Z,3.65
2019-03-06T00:51:36.270Z,3.65
2019-03-06T00:52:36.278Z,3.72
2019-03-06T00:53:36.259Z,3.70
2019-03-06T00:54:36.240Z,3.66
2019-03-06T00:55:36.248Z,3.72
2019-03-06T00:56:36.211Z,3.73
2019-03-06T00:57:36.204Z,3.73
2019-03-06T00:58:36.208Z,3.69
2019-03-06T00:59:36.200Z,3.73
2019-03-06T01:00:36.192Z,3.75
2019-03-06T01:01:36.158Z,3.73
2019-03-06T01:02:36.155Z,3.75
2019-03-06T01:03:36.175Z,3.75
2019-03-06T01:04:36.135Z,3.69
2019-03-06T01:05:36.116Z,3.70
2019-03-06T01:06:36.102Z,3.73
2019-03-06T01:07:36.096Z,3.73
2019-03-06T01:08:36.156Z,3.75
2019-03-06T01:09:36.073Z,3.75
2019-03-06T01:11:37.075Z,3.84
2019-03-06T01:12:36.040Z,3.80
2019-03-06T01:13:36.050Z,3.88
2019-03-06T01:14:36.017Z,3.86
2019-03-06T01:15:36.011Z,3.87
2019-03-06T01:16:35.992Z,3.88
2019-03-06T01:17:35.985Z,3.86
2019-03-06T01:18:35.995Z,3.87
2019-03-06T01:19:35.956Z,3.84
2019-03-06T01:20:35.959Z,3.86
2019-03-06T01:21:35.940Z,3.75
2019-03-06T01:22:35.930Z,3.72
2019-03-06T01:23:35.933Z,3.84
2019-03-06T01:24:35.906Z,3.84
2019-03-06T01:25:35.894Z,3.79
2019-03-06T01:26:35.880Z,3.79
2019-03-06T01:27:35.872Z,3.75
2019-03-06T01:28:35.879Z,3.79
2019-03-06T01:29:35.848Z,3.76
2019-03-06T01:30:35.837Z,3.73
2019-03-06T01:31:35.826Z,3.73
2019-03-06T01:32:35.817Z,3.70
2019-03-06T01:33:35.827Z,3.68
2019-03-06T01:34:35.790Z,3.70
2019-03-06T01:35:35.781Z,3.70
2019-03-06T01:36:35.774Z,3.65
2019-03-06T01:37:35.760Z,3.61
2019-03-06T01:38:35.776Z,3.68
2019-03-06T01:39:35.758Z,3.72
2019-03-06T01:40:35.726Z,3.70
2019-03-06T01:41:35.713Z,3.66
2019-03-06T01:42:35.733Z,3.60
2019-03-06T01:43:35.699Z,3.51
2019-03-06T01:44:35.720Z,3.60
2019-03-06T01:45:35.672Z,3.47
2019-03-06T01:46:35.658Z,3.51
2019-03-06T01:47:35.655Z,3.42
2019-03-06T01:48:35.634Z,3.36
2019-03-06T01:49:35.654Z,3.42
2019-03-06T01:50:35.648Z,3.39
2019-03-06T01:51:35.601Z,3.33
2019-03-06T01:52:35.610Z,3.42
2019-03-06T01:53:35.576Z,3.45
2019-03-06T01:54:35.585Z,3.33
2019-03-06T01:55:35.562Z,3.33
2019-03-06T01:56:35.551Z,3.42
2019-03-06T01:57:35.540Z,3.33
2019-03-06T01:58:35.523Z,3.31
2019-03-06T01:59:35.532Z,3.33
2019-03-06T02:00:35.500Z,3.33
2019-03-06T02:01:35.559Z,3.29
2019-03-06T02:02:35.475Z,3.32
2019-03-06T02:03:35.465Z,3.26
2019-03-06T02:04:35.481Z,3.26
2019-03-06T02:05:35.449Z,3.29
2019-03-06T02:06:35.434Z,3.23
2019-03-06T02:07:35.427Z,3.24
2019-03-06T02:08:35.408Z,3.24
2019-03-06T02:09:35.420Z,3.18
2019-03-06T02:10:35.392Z,3.21
2019-03-06T02:11:35.385Z,3.23
2019-03-06T02:12:35.366Z,3.15
2019-03-06T02:13:35.358Z,3.21
2019-03-06T02:14:35.378Z,3.20
2019-03-06T02:15:35.334Z,3.15
2019-03-06T02:16:35.331Z,3.17
2019-03-06T02:17:35.314Z,3.13
2019-03-06T02:18:35.300Z,3.11
2019-03-06T02:19:35.304Z,3.08
2019-03-06T02:20:35.313Z,3.10
2019-03-06T02:21:35.265Z,3.06
2019-03-06T02:22:35.282Z,3.08
2019-03-06T02:23:35.243Z,3.05
2019-03-06T02:24:35.248Z,3.05
2019-03-06T02:25:35.220Z,3.03
2019-03-06T02:26:35.212Z,2.96
2019-03-06T02:27:35.222Z,3.06
2019-03-06T02:28:35.189Z,3.03
2019-03-06T02:29:35.211Z,2.99
2019-03-06T02:30:35.172Z,2.99
2019-03-06T02:31:35.170Z,2.96
2019-03-06T02:32:35.151Z,2.95
2019-03-06T02:33:35.133Z,3.05
2019-03-06T02:34:35.125Z,2.96
2019-03-06T02:35:35.152Z,2.97
2019-03-06T02:36:35.105Z,2.92
2019-03-06T02:37:35.088Z,2.97
2019-03-06T02:38:35.086Z,2.82
2019-03-06T02:39:35.061Z,2.92
2019-03-06T02:40:35.103Z,3.05
2019-03-06T02:41:35.045Z,2.85
2019-03-06T02:42:35.049Z,2.93
2019-03-06T02:43:35.027Z,2.87
2019-03-06T02:44:35.025Z,2.95
2019-03-06T02:45:35.029Z,2.92
2019-03-06T02:46:34.993Z,2.96
2019-03-06T02:47:34.983Z,3.00
2019-03-06T02:48:34.964Z,2.97
2019-03-06T02:49:34.971Z,2.93
2019-03-06T02:50:34.969Z,2.90
2019-03-06T02:51:34.940Z,2.96
2019-03-06T02:52:34.932Z,2.90
2019-03-06T02:53:34.932Z,2.84
2019-03-06T02:54:34.895Z,2.87
2019-03-06T02:55:34.940Z,2.95
2019-03-06T02:56:34.876Z,2.79
2019-03-06T02:57:34.872Z,2.81
2019-03-06T02:58:34.854Z,2.79
2019-03-06T02:59:34.858Z,2.78
2019-03-06T03:00:34.918Z,2.90
2019-03-06T03:01:34.826Z,2.77
2019-03-06T03:02:34.820Z,2.75
2019-03-06T03:03:34.799Z,2.81
2019-03-06T03:04:34.790Z,2.87
2019-03-06T03:05:34.806Z,2.85
2019-03-06T03:06:34.773Z,2.82
2019-03-06T03:07:34.750Z,2.82
2019-03-06T03:08:34.785Z,2.84
2019-03-06T03:09:34.746Z,2.79
2019-03-06T03:10:34.761Z,2.77
2019-03-06T03:11:34.719Z,2.84
2019-03-06T03:12:34.701Z,2.84
2019-03-06T03:13:34.704Z,2.84
2019-03-06T03:14:34.681Z,2.81
2019-03-06T03:15:34.692Z,2.81
2019-03-06T03:16:34.664Z,2.75
2019-03-06T03:17:34.664Z,2.84
2019-03-06T03:18:34.636Z,2.79
2019-03-06T03:19:34.627Z,2.84
2019-03-06T03:20:34.634Z,2.81
2019-03-06T03:21:34.595Z,2.79
2019-03-06T03:22:34.604Z,2.82
2019-03-06T03:23:34.578Z,2.79
2019-03-06T03:24:34.566Z,2.82
2019-03-06T03:25:34.555Z,2.84
2019-03-06T03:26:34.572Z,2.77
2019-03-06T03:27:34.530Z,2.78
2019-03-06T03:28:34.523Z,2.78
2019-03-06T03:29:34.506Z,2.78
2019-03-06T03:30:34.495Z,2.77
2019-03-06T03:31:34.511Z,2.78
2019-03-06T03:32:34.477Z,2.67
2019-03-06T03:33:34.470Z,2.72
2019-03-06T03:34:34.457Z,2.78
2019-03-06T03:35:34.440Z,2.69
2019-03-06T03:36:34.454Z,2.72
2019-03-06T03:37:34.421Z,2.75
2019-03-06T03:38:34.403Z,2.71
2019-03-06T03:39:34.411Z,2.72
2019-03-06T03:40:34.385Z,2.71
2019-03-06T03:41:34.411Z,2.72
2019-03-06T03:42:34.361Z,2.69
2019-03-06T03:43:34.389Z,2.66
2019-03-06T03:44:34.344Z,2.67
2019-03-06T03:45:34.341Z,2.61
2019-03-06T03:46:34.337Z,2.66
2019-03-06T03:47:34.307Z,2.66
2019-03-06T03:48:34.359Z,2.66
2019-03-06T03:49:34.300Z,2.64
2019-03-06T03:50:34.273Z,2.63
2019-03-06T03:51:34.291Z,2.61
2019-03-06T03:52:34.257Z,2.64
2019-03-06T03:53:34.236Z,2.66
2019-03-06T03:54:34.233Z,2.66
2019-03-06T03:55:34.220Z,2.61
2019-03-06T03:56:34.212Z,2.71
2019-03-06T03:57:34.226Z,2.74
2019-03-06T03:58:34.185Z,2.67
2019-03-06T03:59:34.174Z,2.74
2019-03-06T04:00:34.165Z,2.69
2019-03-06T04:01:34.153Z,2.64
2019-03-06T04:02:34.205Z,2.71
2019-03-06T04:03:34.131Z,2.77
2019-03-06T04:04:34.133Z,2.66
2019-03-06T04:05:34.109Z,2.69
2019-03-06T04:06:34.095Z,2.64
2019-03-06T04:07:34.103Z,2.74
2019-03-06T04:08:34.076Z,2.71
2019-03-06T04:09:34.072Z,2.67
2019-03-06T04:10:34.046Z,2.67
2019-03-06T04:11:34.037Z,2.64
2019-03-06T04:12:34.386Z,2.69
2019-03-06T04:13:34.017Z,2.67
2019-03-06T04:14:34.013Z,2.61
2019-03-06T04:15:34.006Z,2.64
2019-03-06T04:16:34.001Z,2.63
2019-03-06T04:17:33.995Z,2.71
2019-03-06T04:18:33.969Z,2.63
2019-03-06T04:19:33.954Z,2.64
2019-03-06T04:20:33.946Z,2.63
2019-03-06T04:21:33.929Z,2.60
2019-03-06T04:22:33.936Z,2.52
2019-03-06T04:23:33.908Z,2.56
2019-03-06T04:24:33.896Z,2.49
2019-03-06T04:25:33.894Z,2.57
2019-03-06T04:26:33.884Z,2.54
2019-03-06T04:27:33.876Z,2.60
2019-03-06T04:28:33.851Z,2.46
2019-03-06T04:29:33.847Z,2.46
2019-03-06T04:30:33.831Z,2.43
2019-03-06T04:31:33.822Z,2.52
2019-03-06T04:32:33.824Z,2.42
2019-03-06T04:33:33.792Z,2.49
2019-03-06T04:34:33.790Z,2.42
2019-03-06T04:35:33.776Z,2.45
2019-03-06T04:36:33.766Z,2.42
2019-03-06T04:37:33.781Z,2.41
2019-03-06T04:38:33.743Z,2.41
2019-03-06T04:39:33.735Z,2.35
2019-03-06T04:40:33.711Z,2.38
2019-03-06T04:41:33.707Z,2.39
2019-03-06T04:42:33.703Z,2.28
2019-03-06T04:43:33.703Z,2.34
2019-03-06T04:44:33.682Z,2.39
2019-03-06T04:45:33.662Z,2.35
2019-03-06T04:46:33.652Z,2.35
2019-03-06T04:47:33.636Z,2.31
2019-03-06T04:48:33.652Z,2.35
2019-03-06T04:49:33.617Z,2.38
2019-03-06T04:50:33.602Z,2.28
2019-03-06T04:51:33.593Z,2.35
2019-03-06T04:52:33.585Z,2.30
2019-03-06T04:53:33.588Z,2.25
2019-03-06T04:54:33.567Z,2.31
2019-03-06T04:55:33.551Z,2.28
2019-03-06T04:56:33.543Z,2.35
2019-03-06T04:57:33.530Z,2.35
2019-03-06T04:58:33.531Z,2.31
2019-03-06T04:59:33.513Z,2.27
2019-03-06T05:00:33.511Z,2.35
2019-03-06T05:01:33.484Z,2.31
2019-03-06T05:02:33.471Z,2.31
2019-03-06T05:03:33.478Z,2.35
2019-03-06T05:04:33.448Z,2.35
2019-03-06T05:05:33.439Z,2.27
2019-03-06T05:06:33.450Z,2.31
2019-03-06T05:07:33.412Z,2.28
2019-03-06T05:08:33.430Z,2.27
2019-03-06T05:09:33.395Z,2.34
2019-03-06T05:10:33.384Z,2.30
2019-03-06T05:11:33.375Z,2.35
2019-03-06T05:12:33.358Z,2.27
2019-03-06T05:13:33.387Z,2.20
2019-03-06T05:14:33.341Z,2.34
2019-03-06T05:15:33.324Z,2.35
2019-03-06T05:16:33.320Z,2.34
2019-03-06T05:17:33.305Z,2.28
2019-03-06T05:18:33.322Z,2.21
2019-03-06T05:19:33.284Z,2.28
2019-03-06T05:20:33.269Z,2.17
2019-03-06T05:21:33.263Z,2.30
2019-03-06T05:22:33.250Z,2.28
2019-03-06T05:23:33.248Z,2.20
2019-03-06T05:24:33.251Z,2.23
2019-03-06T05:25:33.223Z,2.18
2019-03-06T05:26:33.200Z,2.24
2019-03-06T05:27:33.194Z,2.25
2019-03-06T05:28:33.180Z,2.23
2019-03-06T05:29:33.197Z,2.18
2019-03-06T05:30:33.157Z,2.14
2019-03-06T05:31:33.147Z,2.24
2019-03-06T05:32:33.140Z,2.30
2019-03-06T05:33:33.126Z,2.23
2019-03-06T05:34:33.138Z,2.21
2019-03-06T05:35:33.126Z,2.20
2019-03-06T05:36:33.090Z,2.17
2019-03-06T05:37:33.085Z,2.25
2019-03-06T05:38:33.070Z,2.16
2019-03-06T05:39:33.083Z,2.17
2019-03-06T05:40:33.048Z,2.25
2019-03-06T05:41:33.040Z,2.16
2019-03-06T05:42:33.030Z,2.25
2019-03-06T05:43:33.016Z,2.28
2019-03-06T05:44:33.024Z,2.28
2019-03-06T05:45:32.997Z,2.18
2019-03-06T05:46:32.994Z,2.27
2019-03-06T05:47:32.968Z,2.23
2019-03-06T05:48:32.955Z,2.23
2019-03-06T05:49:32.970Z,2.16
2019-03-06T05:50:32.952Z,2.25
2019-03-06T05:51:32.941Z,2.17
2019-03-06T05:52:32.925Z,2.28
2019-03-06T05:53:32.904Z,2.24
2019-03-06T05:54:32.961Z,2.24
2019-03-06T05:55:32.946Z,2.16
2019-03-06T05:56:32.869Z,2.20
2019-03-06T05:57:32.869Z,2.24
2019-03-06T05:58:32.878Z,2.20
2019-03-06T05:59:32.876Z,2.31
2019-03-06T06:00:32.824Z,2.18
2019-03-06T06:01:32.813Z,2.27
2019-03-06T06:02:32.805Z,2.20
2019-03-06T06:03:32.808Z,2.35
2019-03-06T06:04:32.785Z,2.35
2019-03-06T06:05:32.797Z,2.18
2019-03-06T06:06:32.774Z,2.23
2019-03-06T06:07:32.751Z,2.16
2019-03-06T06:08:32.740Z,2.20
2019-03-06T06:09:32.730Z,2.20
2019-03-06T06:10:32.741Z,2.24
2019-03-06T06:11:32.702Z,2.34
2019-03-06T06:12:32.696Z,2.36
2019-03-06T06:13:32.702Z,2.35
2019-03-06T06:14:32.670Z,2.34
2019-03-06T06:15:32.684Z,2.34
2019-03-06T06:16:32.655Z,2.31
2019-03-06T06:17:32.642Z,2.34
2019-03-06T06:18:32.623Z,2.30
2019-03-06T06:19:32.635Z,2.30
2019-03-06T06:20:32.621Z,2.28
2019-03-06T06:21:32.595Z,2.31
2019-03-06T06:22:32.579Z,2.42
2019-03-06T06:23:32.574Z,2.36
2019-03-06T06:24:32.560Z,2.42
2019-03-06T06:25:32.565Z,2.39
2019-03-06T06:26:32.540Z,2.42
2019-03-06T06:27:32.526Z,2.39
2019-03-06T06:28:32.518Z,2.46
2019-03-06T06:29:32.504Z,2.43
2019-03-06T06:30:32.515Z,2.49
2019-03-06T06:31:32.478Z,2.52
2019-03-06T06:32:33.049Z,2.46
2019-03-06T06:33:32.458Z,2.45
2019-03-06T06:34:32.445Z,2.42
2019-03-06T06:35:32.471Z,2.43
2019-03-06T06:36:32.434Z,2.49
2019-03-06T06:37:32.421Z,2.48
2019-03-06T06:38:32.406Z,2.53
2019-03-06T06:39:32.393Z,2.46
2019-03-06T06:40:32.380Z,2.45
2019-03-06T06:41:32.391Z,2.39
2019-03-06T06:42:32.356Z,2.48
2019-03-06T06:43:32.350Z,2.49
2019-03-06T06:44:32.338Z,2.56
2019-03-06T06:45:32.321Z,2.53
2019-03-06T06:46:32.370Z,2.53
2019-03-06T06:47:32.303Z,2.57
2019-03-06T06:48:32.285Z,2.67
2019-03-06T06:49:32.281Z,2.63
2019-03-06T06:50:32.266Z,2.63
2019-03-06T06:51:32.274Z,2.74
2019-03-06T06:52:32.245Z,2.66
2019-03-06T06:53:32.239Z,2.75
2019-03-06T06:54:32.222Z,2.78
2019-03-06T06:55:32.216Z,2.77
2019-03-06T06:56:32.228Z,2.81
2019-03-06T06:57:32.189Z,2.79
2019-03-06T06:58:32.177Z,2.84
2019-03-06T06:59:32.165Z,2.93
2019-03-06T07:00:32.157Z,2.85
2019-03-06T07:01:32.165Z,2.89
2019-03-06T07:02:32.138Z,2.93
2019-03-06T07:03:32.124Z,2.92
2019-03-06T07:04:32.117Z,3.05
2019-03-06T07:05:32.100Z,3.11
2019-03-06T07:06:32.107Z,3.20
2019-03-06T07:07:32.080Z,3.21
2019-03-06T07:08:32.067Z,3.13
2019-03-06T07:09:32.057Z,3.24
2019-03-06T07:10:32.048Z,3.23
2019-03-06T07:11:32.055Z,3.43
2019-03-06T07:12:32.023Z,3.32
2019-03-06T07:13:32.014Z,3.39
2019-03-06T07:14:32.003Z,3.39
2019-03-06T07:15:31.987Z,3.32
2019-03-06T07:16:31.994Z,3.40
2019-03-06T07:17:31.969Z,3.51
2019-03-06T07:18:32.003Z,3.47
2019-03-06T07:19:31.940Z,3.58
2019-03-06T07:20:31.932Z,3.60
2019-03-06T07:21:31.943Z,3.66
2019-03-06T07:22:31.909Z,3.60
2019-03-06T07:23:31.905Z,3.70
2019-03-06T07:24:31.892Z,3.76
2019-03-06T07:25:31.881Z,3.73
2019-03-06T07:26:31.881Z,3.73
2019-03-06T07:27:31.858Z,3.78
2019-03-06T07:28:31.843Z,3.87
2019-03-06T07:29:31.831Z,3.84
2019-03-06T07:30:31.825Z,3.94
2019-03-06T07:31:31.837Z,3.86
2019-03-06T07:32:31.806Z,3.79
2019-03-06T07:33:31.805Z,3.98
2019-03-06T07:34:31.775Z,4.04
2019-03-06T07:35:31.765Z,3.98
2019-03-06T07:36:31.752Z,4.00
2019-03-06T07:37:31.759Z,4.18
2019-03-06T07:38:31.733Z,4.05
2019-03-06T07:39:32.235Z,4.16
2019-03-06T07:40:31.711Z,4.30
2019-03-06T07:41:31.697Z,4.26
2019-03-06T07:42:31.714Z,4.34
2019-03-06T07:43:31.675Z,4.37
2019-03-06T07:44:31.667Z,4.37
2019-03-06T07:45:31.653Z,4.45
2019-03-06T07:46:31.643Z,4.44
2019-03-06T07:47:31.651Z,4.54
2019-03-06T07:48:31.684Z,4.60
2019-03-06T07:49:31.611Z,4.50
2019-03-06T07:50:31.609Z,4.62
2019-03-06T07:51:32.004Z,4.75
2019-03-06T07:52:31.589Z,4.75
2019-03-06T07:53:31.578Z,4.69
2019-03-06T07:54:31.559Z,4.60
2019-03-06T07:55:31.541Z,4.66
2019-03-06T07:56:31.529Z,4.77
2019-03-06T07:57:31.543Z,4.72
2019-03-06T07:58:31.508Z,4.77
2019-03-06T07:59:31.497Z,4.84
2019-03-06T08:00:31.492Z,4.80
2019-03-06T08:01:31.470Z,4.82
2019-03-06T08:02:31.488Z,4.86
2019-03-06T08:03:31.454Z,4.80
2019-03-06T08:04:31.463Z,4.82
2019-03-06T08:05:31.430Z,4.77
2019-03-06T08:06:31.426Z,4.82
2019-03-06T08:07:31.417Z,4.86
2019-03-06T08:08:31.418Z,4.97
2019-03-06T08:09:31.397Z,4.85
2019-03-06T08:10:31.374Z,4.92
2019-03-06T08:11:31.367Z,5.07
2019-03-06T08:12:31.353Z,5.02
2019-03-06T08:13:31.359Z,4.97
2019-03-06T08:14:31.332Z,4.86
2019-03-06T08:15:31.315Z,4.82
2019-03-06T08:16:31.318Z,4.84
2019-03-06T08:17:31.297Z,5.07
2019-03-06T08:18:31.300Z,5.06
2019-03-06T08:19:31.285Z,5.21
2019-03-06T08:20:31.262Z,5.22
2019-03-06T08:21:31.251Z,5.27
2019-03-06T08:22:31.241Z,5.27
2019-03-06T08:23:31.249Z,5.35
2019-03-06T08:24:31.216Z,5.38
2019-03-06T08:25:31.211Z,5.38
2019-03-06T08:26:31.201Z,5.38
2019-03-06T08:27:31.190Z,5.42
2019-03-06T08:28:31.193Z,5.45
2019-03-06T08:29:31.162Z,5.53
2019-03-06T08:30:31.154Z,5.61
2019-03-06T08:31:31.140Z,5.57
2019-03-06T08:32:31.157Z,5.63
2019-03-06T08:33:31.141Z,5.65
2019-03-06T08:34:31.104Z,5.68
2019-03-06T08:35:31.090Z,5.82
2019-03-06T08:36:31.085Z,5.82
2019-03-06T08:37:31.072Z,5.97
2019-03-06T08:38:31.099Z,6.01
2019-03-06T08:39:31.065Z,6.06
2019-03-06T08:40:31.033Z,6.03
2019-03-06T08:41:31.031Z,6.14
2019-03-06T08:42:32.581Z,6.22
2019-03-06T08:43:31.018Z,6.36
2019-03-06T08:44:30.990Z,6.46
2019-03-06T08:45:30.978Z,6.56
2019-03-06T08:46:30.971Z,6.61
2019-03-06T08:47:30.964Z,6.76
2019-03-06T08:48:30.976Z,6.77
2019-03-06T08:49:30.937Z,6.89
2019-03-06T08:50:30.930Z,6.74
2019-03-06T08:51:30.915Z,6.74
2019-03-06T08:52:30.902Z,6.81
2019-03-06T08:53:30.937Z,6.84
2019-03-06T08:54:30.882Z,6.94
2019-03-06T08:55:30.874Z,7.12
2019-03-06T08:56:30.865Z,7.27
2019-03-06T08:57:30.847Z,7.28
2019-03-06T08:58:30.835Z,7.45
2019-03-06T08:59:30.849Z,7.49
2019-03-06T09:00:30.816Z,7.45
2019-03-06T09:01:30.813Z,7.42
2019-03-06T09:02:30.791Z,7.37
2019-03-06T09:03:30.783Z,7.53
2019-03-06T09:04:30.791Z,7.55
2019-03-06T09:05:31.108Z,7.58
2019-03-06T09:06:30.745Z,7.49
2019-03-06T09:07:30.736Z,7.40
2019-03-06T09:08:30.724Z,7.39
2019-03-06T09:09:30.755Z,7.57
2019-03-06T09:10:30.715Z,7.53
2019-03-06T09:11:30.692Z,7.63
2019-03-06T09:12:30.675Z,7.74
2019-03-06T09:13:30.672Z,7.79
2019-03-06T09:14:30.678Z,7.82
2019-03-06T09:15:30.647Z,7.80
2019-03-06T09:16:30.636Z,7.83
2019-03-06T09:17:30.619Z,7.85
2019-03-06T09:18:30.611Z,7.80
2019-03-06T09:19:30.632Z,7.74
2019-03-06T09:20:36.151Z,7.69
2019-03-06T09:21:31.589Z,7.71
2019-03-06T09:22:30.565Z,7.77
2019-03-06T09:23:30.553Z,7.86
2019-03-06T09:24:30.559Z,7.80
2019-03-06T09:25:30.537Z,7.90
2019-03-06T09:26:30.520Z,7.98
2019-03-06T09:27:30.509Z,7.93
2019-03-06T09:28:30.546Z,8.10
2019-03-06T09:29:30.504Z,8.11
2019-03-06T09:30:30.478Z,8.16
2019-03-06T09:31:30.468Z,8.25
2019-03-06T09:32:30.452Z,8.33
2019-03-06T09:33:30.450Z,8.43
2019-03-06T09:34:30.447Z,8.45
2019-03-06T09:35:30.419Z,8.52
2019-03-06T09:36:30.421Z,8.40
2019-03-06T09:37:30.401Z,8.40
2019-03-06T09:38:30.392Z,8.40
2019-03-06T09:39:30.401Z,8.45
2019-03-06T09:40:30.367Z,8.44
2019-03-06T09:41:30.357Z,8.43
2019-03-06T09:42:30.353Z,8.50
2019-03-06T09:43:30.331Z,8.55
2019-03-06T09:44:30.339Z,8.45
2019-03-06T09:45:30.306Z,8.55
2019-03-06T09:46:30.300Z,8.53
2019-03-06T09:47:30.293Z,8.65
2019-03-06T09:48:30.274Z,8.79
2019-03-06T09:49:30.299Z,8.77
2019-03-06T09:50:30.252Z,8.95
2019-03-06T09:51:30.247Z,9.04
2019-03-06T09:52:30.230Z,9.05
2019-03-06T09:53:30.221Z,9.08
2019-03-06T09:54:30.228Z,9.05
2019-03-06T09:55:30.200Z,9.02
2019-03-06T09:56:30.187Z,9.14
2019-03-06T09:57:30.179Z,9.33
2019-03-06T09:58:30.162Z,9.46
2019-03-06T09:59:30.213Z,9.69
2019-03-06T10:00:30.139Z,9.86
2019-03-06T10:01:30.131Z,10.09
2019-03-06T10:02:30.130Z,10.09
2019-03-06T10:03:30.108Z,9.97
2019-03-06T10:04:30.125Z,10.17
2019-03-06T10:05:30.096Z,10.30
2019-03-06T10:06:30.076Z,10.34
2019-03-06T10:07:30.060Z,10.41
2019-03-06T10:08:30.051Z,10.48
2019-03-06T10:09:30.067Z,10.55
2019-03-06T10:10:30.037Z,10.89
2019-03-06T10:11:30.017Z,11.19
2019-03-06T10:12:30.011Z,11.55
2019-03-06T10:13:29.996Z,12.04
2019-03-06T10:14:29.994Z,12.41
2019-03-06T10:15:29.971Z,12.52
2019-03-06T10:16:29.961Z,12.72
2019-03-06T10:17:30.287Z,12.87
2019-03-06T10:18:29.937Z,12.71
2019-03-06T10:19:29.950Z,12.96
2019-03-06T10:20:29.921Z,13.04
2019-03-06T10:21:29.904Z,13.12
2019-03-06T10:22:29.899Z,13.08
2019-03-06T10:23:29.884Z,13.28
2019-03-06T10:24:29.897Z,13.45
2019-03-06T10:25:32.068Z,13.66
2019-03-06T10:26:29.847Z,13.84
2019-03-06T10:27:29.853Z,14.12
2019-03-06T10:28:29.824Z,14.37
2019-03-06T10:29:29.811Z,14.64
2019-03-06T10:30:29.825Z,14.39
2019-03-06T10:31:29.799Z,14.61
2019-03-06T10:32:29.780Z,14.70
2019-03-06T10:33:29.771Z,14.88
2019-03-06T10:34:29.753Z,14.70
2019-03-06T10:35:29.773Z,14.61
2019-03-06T10:36:29.733Z,14.24
2019-03-06T10:37:29.724Z,14.20
2019-03-06T10:38:29.710Z,14.29
2019-03-06T10:39:29.701Z,14.61
2019-03-06T10:40:29.711Z,14.96
2019-03-06T10:41:29.678Z,15.16
2019-03-06T10:42:29.660Z,15.32
2019-03-06T10:43:29.651Z,15.32
2019-03-06T10:44:30.083Z,15.28
2019-03-06T10:45:29.658Z,15.44
2019-03-06T10:46:29.619Z,15.76
2019-03-06T10:47:29.611Z,15.71
2019-03-06T10:48:29.603Z,15.57
2019-03-06T10:49:29.588Z,15.21
2019-03-06T10:50:31.206Z,14.91
2019-03-06T10:51:31.081Z,15.16
2019-03-06T10:52:29.547Z,15.39
2019-03-06T10:53:29.544Z,15.27
2019-03-06T10:54:29.539Z,15.46
2019-03-06T10:55:29.536Z,15.62
2019-03-06T10:56:29.511Z,15.71
2019-03-06T10:57:29.495Z,16.00
2019-03-06T10:58:29.483Z,16.17
2019-03-06T10:59:29.490Z,16.28
2019-03-06T11:00:29.476Z,16.70
2019-03-06T11:01:29.452Z,16.82
2019-03-06T11:02:29.435Z,16.96
2019-03-06T11:03:29.426Z,17.31
2019-03-06T11:04:29.414Z,17.34
2019-03-06T11:05:29.422Z,17.28
2019-03-06T11:06:29.391Z,17.16
2019-03-06T11:07:29.381Z,17.21
2019-03-06T11:08:29.370Z,16.52
2019-03-06T11:09:29.357Z,16.11
2019-03-06T11:10:29.378Z,15.74
2019-03-06T11:11:29.342Z,15.69
2019-03-06T11:12:29.324Z,15.71
2019-03-06T11:13:29.316Z,15.82
2019-03-06T11:14:29.301Z,16.08
2019-03-06T11:15:29.308Z,16.46
2019-03-06T11:16:30.128Z,16.46
2019-03-06T11:17:29.266Z,16.05
2019-03-06T11:18:29.259Z,15.14
2019-03-06T11:19:29.271Z,15.13
2019-03-06T11:20:29.265Z,15.19
2019-03-06T11:21:29.222Z,15.09
2019-03-06T11:22:29.214Z,15.35
2019-03-06T11:23:29.197Z,15.23
2019-03-06T11:24:29.203Z,14.89
2019-03-06T11:25:29.208Z,15.06
2019-03-06T11:26:29.165Z,14.83
2019-03-06T11:27:29.158Z,14.73
2019-03-06T11:28:29.144Z,14.77
2019-03-06T11:29:29.140Z,14.83
2019-03-06T11:30:29.136Z,14.80
2019-03-06T11:31:29.123Z,14.99
2019-03-06T11:32:29.099Z,14.96
2019-03-06T11:33:29.091Z,15.21
2019-03-06T11:34:29.077Z,15.41
2019-03-06T11:35:29.089Z,15.78
2019-03-06T11:36:29.054Z,15.47
2019-03-06T11:37:29.047Z,15.38
2019-03-06T11:38:29.031Z,15.50
2019-03-06T11:39:29.018Z,15.17
2019-03-06T11:40:29.032Z,15.51
2019-03-06T11:41:28.998Z,15.20
2019-03-06T11:42:28.987Z,15.03
2019-03-06T11:43:28.975Z,14.84
2019-03-06T11:44:28.962Z,14.61
2019-03-06T11:45:28.982Z,14.72
2019-03-06T11:46:28.937Z,14.98
2019-03-06T11:47:28.931Z,15.20
2019-03-06T11:48:28.921Z,15.14
2019-03-06T11:49:28.906Z,15.10
2019-03-06T11:50:28.913Z,15.38
2019-03-06T11:51:28.887Z,15.49
2019-03-06T11:52:28.875Z,15.86
2019-03-06T11:53:28.861Z,15.96
2019-03-06T11:54:28.858Z,15.92
2019-03-06T11:55:28.919Z,15.14
2019-03-06T11:56:28.827Z,14.88
2019-03-06T11:57:28.823Z,14.96
2019-03-06T11:58:28.806Z,15.03
2019-03-06T11:59:28.803Z,15.14
2019-03-06T12:00:28.785Z,15.20
2019-03-06T12:01:28.785Z,15.25
2019-03-06T12:02:28.762Z,15.14
2019-03-06T12:03:28.751Z,15.03
2019-03-06T12:04:28.737Z,14.61
2019-03-06T12:05:28.721Z,14.36
2019-03-06T12:06:28.729Z,14.32
2019-03-06T12:07:28.703Z,14.55
2019-03-06T12:08:28.692Z,14.92
2019-03-06T12:09:28.686Z,15.35
2019-03-06T12:10:28.670Z,16.00
2019-03-06T12:11:28.685Z,16.34
2019-03-06T12:12:28.645Z,16.88
2019-03-06T12:13:28.635Z,16.61
2019-03-06T12:14:28.635Z,16.82
2019-03-06T12:15:28.647Z,16.96
2019-03-06T12:16:28.615Z,17.34
2019-03-06T12:17:28.596Z,17.96
2019-03-06T12:18:28.578Z,17.95
2019-03-06T12:19:28.569Z,18.07
2019-03-06T12:20:28.555Z,18.26
2019-03-06T12:21:28.558Z,18.17
2019-03-06T12:22:28.535Z,18.35
2019-03-06T12:23:28.518Z,18.63
2019-03-06T12:24:28.511Z,19.00
2019-03-06T12:25:28.498Z,19.63
2019-03-06T12:26:28.500Z,19.87
2019-03-06T12:27:28.477Z,19.84
2019-03-06T12:28:28.466Z,19.87
2019-03-06T12:29:28.446Z,19.99
2019-03-06T12:30:28.440Z,19.80
2019-03-06T12:31:28.449Z,19.86
2019-03-06T12:32:28.418Z,20.10
2019-03-06T12:33:28.419Z,18.99
2019-03-06T12:34:28.401Z,18.42
2019-03-06T12:35:28.387Z,17.79
2019-03-06T12:36:28.395Z,17.28
2019-03-06T12:37:28.366Z,17.48
2019-03-06T12:38:28.355Z,17.77
2019-03-06T12:39:28.349Z,17.82
2019-03-06T12:40:28.330Z,17.97
2019-03-06T12:41:28.342Z,17.96
2019-03-06T12:42:28.304Z,17.68
2019-03-06T12:43:28.295Z,17.52
2019-03-06T12:44:28.293Z,17.31
2019-03-06T12:45:28.275Z,17.36
2019-03-06T12:46:28.282Z,17.31
2019-03-06T12:47:28.249Z,17.43
2019-03-06T12:48:28.246Z,17.78
2019-03-06T12:49:28.231Z,17.75
2019-03-06T12:50:28.218Z,17.74
2019-03-06T12:51:28.227Z,18.00
2019-03-06T12:52:28.193Z,17.92
2019-03-06T12:53:28.183Z,17.72
2019-03-06T12:54:28.175Z,17.74
2019-03-06T12:55:28.167Z,17.74
2019-03-06T12:56:28.226Z,17.41
2019-03-06T12:57:28.139Z,17.25
2019-03-06T12:58:28.134Z,17.18
2019-03-06T12:59:28.112Z,17.52
2019-03-06T13:00:28.105Z,18.50
2019-03-06T13:01:28.115Z,19.44
2019-03-06T13:02:28.087Z,19.94
2019-03-06T13:03:28.077Z,19.47
2019-03-06T13:04:28.061Z,19.28
2019-03-06T13:05:28.064Z,19.21
2019-03-06T13:06:28.067Z,19.23
2019-03-06T13:07:28.051Z,19.61
2019-03-06T13:08:28.015Z,19.83
2019-03-06T13:09:28.012Z,18.88
2019-03-06T13:10:27.998Z,19.16
2019-03-06T13:11:27.981Z,18.62
2019-03-06T13:12:29.246Z,18.42
2019-03-06T13:13:35.219Z,18.33